sensor_id;sensor_type;location;lat;lon;timestamp;pressure;altitude;pressure_sealevel;temperature;humidity
74529;BME280;63009;52.584;5.932;2023-12-20T00:00:56;101116.31;;;6.93;100.00
74529;BME280;63009;52.584;5.932;2023-12-20T00:03:21;101112.06;;;6.90;100.00
74529;BME280;63009;52.584;5.932;2023-12-20T00:05:47;101110.50;;;6.84;100.00
74529;BME280;63009;52.584;5.932;2023-12-20T00:08:13;101117.59;;;6.82;100.00
74529;BME280;63009;52.584;5.932;2023-12-20T00:10:38;101118.56;;;6.80;100.00
74529;BME280;63009;52.584;5.932;2023-12-20T00:13:03;101127.53;;;6.74;100.00
74529;BME280;63009;52.584;5.932;2023-12-20T00:15:29;101119.38;;;6.59;100.00
74529;BME280;63009;52.584;5.932;2023-12-20T00:17:54;101108.97;;;6.79;100.00
74529;BME280;63009;52.584;5.932;2023-12-20T00:20:19;101108.91;;;6.80;100.00
74529;BME280;63009;52.584;5.932;2023-12-20T00:22:45;101116.06;;;6.77;100.00
74529;BME280;63009;52.584;5.932;2023-12-20T00:25:12;101116.72;;;6.82;100.00
74529;BME280;63009;52.584;5.932;2023-12-20T00:27:38;101108.06;;;6.80;100.00
74529;BME280;63009;52.584;5.932;2023-12-20T00:30:03;101090.66;;;6.77;100.00
74529;BME280;63009;52.584;5.932;2023-12-20T00:32:29;101092.31;;;6.80;100.00
74529;BME280;63009;52.584;5.932;2023-12-20T00:34:54;101103.78;;;6.77;100.00
74529;BME280;63009;52.584;5.932;2023-12-20T00:37:19;101107.88;;;6.84;100.00
74529;BME280;63009;52.584;5.932;2023-12-20T00:39:45;101096.69;;;6.79;100.00
74529;BME280;63009;52.584;5.932;2023-12-20T00:42:10;101110.31;;;6.89;100.00
74529;BME280;63009;52.584;5.932;2023-12-20T00:44:35;101100.78;;;6.87;100.00
74529;BME280;63009;52.584;5.932;2023-12-20T00:47:01;101084.91;;;6.90;100.00
74529;BME280;63009;52.584;5.932;2023-12-20T00:49:26;101098.91;;;6.90;100.00
74529;BME280;63009;52.584;5.932;2023-12-20T00:51:51;101093.88;;;6.84;100.00
74529;BME280;63009;52.584;5.932;2023-12-20T00:54:18;101090.28;;;6.87;100.00
74529;BME280;63009;52.584;5.932;2023-12-20T00:56:43;101095.31;;;6.93;100.00
74529;BME280;63009;52.584;5.932;2023-12-20T00:59:09;101106.75;;;6.92;100.00
74529;BME280;63009;52.584;5.932;2023-12-20T01:01:34;101115.47;;;6.92;100.00
74529;BME280;63009;52.584;5.932;2023-12-20T01:03:59;101102.34;;;6.92;100.00
74529;BME280;63009;52.584;5.932;2023-12-20T01:06:25;101099.31;;;6.79;100.00
74529;BME280;63009;52.584;5.932;2023-12-20T01:08:50;101101.47;;;6.92;100.00
74529;BME280;63009;52.584;5.932;2023-12-20T01:11:15;101109.78;;;6.81;100.00
74529;BME280;63009;52.584;5.932;2023-12-20T01:13:41;101104.56;;;6.79;100.00
74529;BME280;63009;52.584;5.932;2023-12-20T01:16:06;101106.34;;;6.79;100.00
74529;BME280;63009;52.584;5.932;2023-12-20T01:18:31;101094.13;;;6.78;100.00
74529;BME280;63009;52.584;5.932;2023-12-20T01:21:01;101087.03;;;6.80;100.00
74529;BME280;63009;52.584;5.932;2023-12-20T01:23:28;101093.34;;;6.76;100.00
74529;BME280;63009;52.584;5.932;2023-12-20T01:25:53;101086.66;;;6.67;100.00
74529;BME280;63009;52.584;5.932;2023-12-20T01:28:19;101090.19;;;6.66;100.00
74529;BME280;63009;52.584;5.932;2023-12-20T01:30:44;101093.63;;;6.68;100.00
74529;BME280;63009;52.584;5.932;2023-12-20T01:33:10;101083.31;;;6.64;100.00
74529;BME280;63009;52.584;5.932;2023-12-20T01:35:35;101074.38;;;6.68;100.00
74529;BME280;63009;52.584;5.932;2023-12-20T01:38:01;101081.00;;;6.78;100.00
74529;BME280;63009;52.584;5.932;2023-12-20T01:40:26;101076.16;;;6.67;100.00
74529;BME280;63009;52.584;5.932;2023-12-20T01:43:04;101071.44;;;6.75;100.00
74529;BME280;63009;52.584;5.932;2023-12-20T01:45:31;101074.56;;;6.63;100.00
74529;BME280;63009;52.584;5.932;2023-12-20T01:47:57;101074.44;;;6.66;100.00
74529;BME280;63009;52.584;5.932;2023-12-20T01:50:23;101076.81;;;6.72;100.00
74529;BME280;63009;52.584;5.932;2023-12-20T01:52:49;101076.69;;;6.75;100.00
74529;BME280;63009;52.584;5.932;2023-12-20T01:55:18;101091.59;;;6.75;100.00
74529;BME280;63009;52.584;5.932;2023-12-20T01:57:44;101075.19;;;6.70;100.00
74529;BME280;63009;52.584;5.932;2023-12-20T02:00:11;101071.69;;;6.69;100.00
74529;BME280;63009;52.584;5.932;2023-12-20T02:02:39;101068.16;;;6.70;100.00
74529;BME280;63009;52.584;5.932;2023-12-20T02:05:09;101074.97;;;6.76;100.00
74529;BME280;63009;52.584;5.932;2023-12-20T02:07:34;101067.97;;;6.75;100.00
74529;BME280;63009;52.584;5.932;2023-12-20T02:10:03;101060.06;;;6.75;100.00
74529;BME280;63009;52.584;5.932;2023-12-20T02:12:29;101052.91;;;6.80;100.00
74529;BME280;63009;52.584;5.932;2023-12-20T02:14:55;101060.47;;;6.88;100.00
74529;BME280;63009;52.584;5.932;2023-12-20T02:17:21;101055.03;;;6.92;100.00
74529;BME280;63009;52.584;5.932;2023-12-20T02:19:47;101048.09;;;6.91;100.00
74529;BME280;63009;52.584;5.932;2023-12-20T02:22:12;101036.66;;;6.92;100.00
74529;BME280;63009;52.584;5.932;2023-12-20T02:24:38;101048.69;;;6.98;100.00
74529;BME280;63009;52.584;5.932;2023-12-20T02:27:05;101047.03;;;6.95;100.00
74529;BME280;63009;52.584;5.932;2023-12-20T02:29:32;101050.19;;;7.03;100.00
74529;BME280;63009;52.584;5.932;2023-12-20T02:31:58;101037.97;;;7.02;100.00
74529;BME280;63009;52.584;5.932;2023-12-20T02:34:23;101031.06;;;7.00;100.00
74529;BME280;63009;52.584;5.932;2023-12-20T02:36:51;101042.84;;;7.11;100.00
74529;BME280;63009;52.584;5.932;2023-12-20T02:39:17;101035.03;;;7.10;100.00
74529;BME280;63009;52.584;5.932;2023-12-20T02:41:43;101036.63;;;7.14;100.00
74529;BME280;63009;52.584;5.932;2023-12-20T02:44:08;101036.38;;;7.20;100.00
74529;BME280;63009;52.584;5.932;2023-12-20T02:46:34;101036.84;;;7.30;100.00
74529;BME280;63009;52.584;5.932;2023-12-20T02:48:59;101031.47;;;7.33;100.00
74529;BME280;63009;52.584;5.932;2023-12-20T02:51:24;101035.88;;;7.32;100.00
74529;BME280;63009;52.584;5.932;2023-12-20T02:53:50;101030.28;;;7.20;100.00
74529;BME280;63009;52.584;5.932;2023-12-20T02:56:15;101037.63;;;7.32;100.00
74529;BME280;63009;52.584;5.932;2023-12-20T02:58:40;101030.34;;;7.38;100.00
74529;BME280;63009;52.584;5.932;2023-12-20T03:01:05;101032.78;;;7.43;100.00
74529;BME280;63009;52.584;5.932;2023-12-20T03:03:31;101016.16;;;7.42;100.00
74529;BME280;63009;52.584;5.932;2023-12-20T03:05:57;101016.16;;;7.42;100.00
74529;BME280;63009;52.584;5.932;2023-12-20T03:08:22;101019.38;;;7.49;100.00
74529;BME280;63009;52.584;5.932;2023-12-20T03:10:48;101022.88;;;7.50;100.00
74529;BME280;63009;52.584;5.932;2023-12-20T03:13:13;101016.06;;;7.44;100.00
74529;BME280;63009;52.584;5.932;2023-12-20T03:15:39;101014.44;;;7.41;100.00
74529;BME280;63009;52.584;5.932;2023-12-20T03:18:07;101016.53;;;7.54;100.00
74529;BME280;63009;52.584;5.932;2023-12-20T03:20:33;101026.53;;;7.45;100.00
74529;BME280;63009;52.584;5.932;2023-12-20T03:23:00;101026.09;;;7.36;100.00
74529;BME280;63009;52.584;5.932;2023-12-20T03:25:25;101025.41;;;7.31;100.00
74529;BME280;63009;52.584;5.932;2023-12-20T03:27:50;101026.16;;;7.34;100.00
74529;BME280;63009;52.584;5.932;2023-12-20T03:30:16;101015.94;;;7.27;100.00
74529;BME280;63009;52.584;5.932;2023-12-20T03:32:41;101029.50;;;7.38;100.00
74529;BME280;63009;52.584;5.932;2023-12-20T03:35:07;101020.41;;;7.45;100.00
74529;BME280;63009;52.584;5.932;2023-12-20T03:37:32;101013.59;;;7.41;100.00
74529;BME280;63009;52.584;5.932;2023-12-20T03:39:57;101028.50;;;7.40;100.00
74529;BME280;63009;52.584;5.932;2023-12-20T03:42:23;101024.97;;;7.41;100.00
74529;BME280;63009;52.584;5.932;2023-12-20T03:44:48;101018.13;;;7.37;100.00
74529;BME280;63009;52.584;5.932;2023-12-20T03:47:13;101014.66;;;7.37;100.00
74529;BME280;63009;52.584;5.932;2023-12-20T03:49:42;101025.16;;;7.37;100.00
74529;BME280;63009;52.584;5.932;2023-12-20T03:52:07;101015.28;;;7.42;100.00
74529;BME280;63009;52.584;5.932;2023-12-20T03:54:34;101009.38;;;7.37;100.00
74529;BME280;63009;52.584;5.932;2023-12-20T03:56:59;101018.63;;;7.45;100.00
74529;BME280;63009;52.584;5.932;2023-12-20T03:59:25;101018.53;;;7.49;100.00
74529;BME280;63009;52.584;5.932;2023-12-20T04:01:50;101017.47;;;7.53;100.00
74529;BME280;63009;52.584;5.932;2023-12-20T04:04:15;101011.34;;;7.52;100.00
74529;BME280;63009;52.584;5.932;2023-12-20T04:06:41;101002.69;;;7.50;100.00
74529;BME280;63009;52.584;5.932;2023-12-20T04:09:06;100997.34;;;7.52;100.00
74529;BME280;63009;52.584;5.932;2023-12-20T04:11:34;101004.03;;;7.59;100.00
74529;BME280;63009;52.584;5.932;2023-12-20T04:13:59;100998.91;;;7.56;100.00
74529;BME280;63009;52.584;5.932;2023-12-20T04:16:26;100999.19;;;7.50;100.00
74529;BME280;63009;52.584;5.932;2023-12-20T04:18:51;100997.66;;;7.44;100.00
74529;BME280;63009;52.584;5.932;2023-12-20T04:21:16;100992.16;;;7.30;100.00
74529;BME280;63009;52.584;5.932;2023-12-20T04:23:41;101002.94;;;7.24;100.00
74529;BME280;63009;52.584;5.932;2023-12-20T04:26:07;101009.34;;;7.17;100.00
74529;BME280;63009;52.584;5.932;2023-12-20T04:28:32;101011.81;;;7.21;100.00
74529;BME280;63009;52.584;5.932;2023-12-20T04:30:57;101006.34;;;7.26;100.00
74529;BME280;63009;52.584;5.932;2023-12-20T04:33:23;100997.88;;;7.19;100.00
74529;BME280;63009;52.584;5.932;2023-12-20T04:35:48;100981.34;;;7.15;100.00
74529;BME280;63009;52.584;5.932;2023-12-20T04:38:13;100989.78;;;7.24;100.00
74529;BME280;63009;52.584;5.932;2023-12-20T04:40:39;100985.25;;;7.27;100.00
74529;BME280;63009;52.584;5.932;2023-12-20T04:43:06;100987.09;;;7.45;100.00
74529;BME280;63009;52.584;5.932;2023-12-20T04:45:31;100984.19;;;7.31;100.00
74529;BME280;63009;52.584;5.932;2023-12-20T04:47:56;100982.03;;;7.41;100.00
74529;BME280;63009;52.584;5.932;2023-12-20T04:50:22;100986.97;;;7.49;100.00
74529;BME280;63009;52.584;5.932;2023-12-20T04:52:47;100986.75;;;7.53;100.00
74529;BME280;63009;52.584;5.932;2023-12-20T04:55:12;100984.00;;;7.56;100.00
74529;BME280;63009;52.584;5.932;2023-12-20T04:57:38;100996.03;;;7.62;100.00
74529;BME280;63009;52.584;5.932;2023-12-20T05:00:05;100998.69;;;7.62;100.00
74529;BME280;63009;52.584;5.932;2023-12-20T05:02:30;100998.00;;;7.57;100.00
74529;BME280;63009;52.584;5.932;2023-12-20T05:04:56;100995.84;;;7.66;100.00
74529;BME280;63009;52.584;5.932;2023-12-20T05:07:21;100985.63;;;7.59;100.00
74529;BME280;63009;52.584;5.932;2023-12-20T05:09:47;100980.78;;;7.50;100.00
74529;BME280;63009;52.584;5.932;2023-12-20T05:12:12;100985.97;;;7.51;100.00
74529;BME280;63009;52.584;5.932;2023-12-20T05:14:39;100977.31;;;7.49;100.00
74529;BME280;63009;52.584;5.932;2023-12-20T05:17:07;100982.28;;;7.55;100.00
74529;BME280;63009;52.584;5.932;2023-12-20T05:19:32;100979.59;;;7.57;100.00
74529;BME280;63009;52.584;5.932;2023-12-20T05:22:01;100975.41;;;7.53;100.00
74529;BME280;63009;52.584;5.932;2023-12-20T05:24:26;100971.63;;;7.58;100.00
74529;BME280;63009;52.584;5.932;2023-12-20T05:26:51;100981.97;;;7.63;100.00
74529;BME280;63009;52.584;5.932;2023-12-20T05:29:17;100973.34;;;7.59;100.00
74529;BME280;63009;52.584;5.932;2023-12-20T05:31:42;100975.78;;;7.64;100.00
74529;BME280;63009;52.584;5.932;2023-12-20T05:34:08;100970.25;;;7.70;100.00
74529;BME280;63009;52.584;5.932;2023-12-20T05:36:33;100976.22;;;7.73;100.00
74529;BME280;63009;52.584;5.932;2023-12-20T05:38:58;100973.25;;;7.81;100.00
74529;BME280;63009;52.584;5.932;2023-12-20T05:41:24;100978.66;;;7.78;100.00
74529;BME280;63009;52.584;5.932;2023-12-20T05:43:49;100972.47;;;7.79;100.00
74529;BME280;63009;52.584;5.932;2023-12-20T05:46:14;100962.94;;;7.77;100.00
74529;BME280;63009;52.584;5.932;2023-12-20T05:48:40;100976.66;;;7.83;100.00
74529;BME280;63009;52.584;5.932;2023-12-20T05:51:05;100962.50;;;7.67;100.00
74529;BME280;63009;52.584;5.932;2023-12-20T05:53:30;100973.53;;;7.75;100.00
74529;BME280;63009;52.584;5.932;2023-12-20T05:55:56;100962.09;;;7.76;100.00
74529;BME280;63009;52.584;5.932;2023-12-20T05:58:21;100964.72;;;7.76;100.00
74529;BME280;63009;52.584;5.932;2023-12-20T06:00:46;100972.47;;;7.79;100.00
74529;BME280;63009;52.584;5.932;2023-12-20T06:03:12;100968.22;;;7.77;100.00
74529;BME280;63009;52.584;5.932;2023-12-20T06:05:37;100955.69;;;7.82;100.00
74529;BME280;63009;52.584;5.932;2023-12-20T06:08:02;100971.81;;;7.74;100.00
74529;BME280;63009;52.584;5.932;2023-12-20T06:10:28;100966.28;;;7.80;100.00
74529;BME280;63009;52.584;5.932;2023-12-20T06:12:54;100957.31;;;7.84;100.00
74529;BME280;63009;52.584;5.932;2023-12-20T06:15:19;100970.22;;;7.90;100.00
74529;BME280;63009;52.584;5.932;2023-12-20T06:17:45;100963.09;;;7.92;100.00
74529;BME280;63009;52.584;5.932;2023-12-20T06:20:11;100958.94;;;7.87;100.00
74529;BME280;63009;52.584;5.932;2023-12-20T06:22:38;100950.78;;;7.93;100.00
74529;BME280;63009;52.584;5.932;2023-12-20T06:25:04;100958.53;;;7.96;100.00
74529;BME280;63009;52.584;5.932;2023-12-20T06:27:30;100947.31;;;7.92;100.00
74529;BME280;63009;52.584;5.932;2023-12-20T06:29:57;100940.91;;;7.98;100.00
74529;BME280;63009;52.584;5.932;2023-12-20T06:32:23;100939.78;;;8.03;100.00
74529;BME280;63009;52.584;5.932;2023-12-20T06:34:49;100953.28;;;8.15;100.00
74529;BME280;63009;52.584;5.932;2023-12-20T06:37:16;100949.88;;;8.13;100.00
74529;BME280;63009;52.584;5.932;2023-12-20T06:39:42;100952.56;;;8.11;100.00
74529;BME280;63009;52.584;5.932;2023-12-20T06:42:10;100956.84;;;8.14;100.00
74529;BME280;63009;52.584;5.932;2023-12-20T06:44:36;100941.69;;;8.00;100.00
74529;BME280;63009;52.584;5.932;2023-12-20T06:47:02;100943.69;;;8.14;100.00
74529;BME280;63009;52.584;5.932;2023-12-20T06:49:27;100949.09;;;8.11;100.00
74529;BME280;63009;52.584;5.932;2023-12-20T06:51:52;100946.88;;;8.01;100.00
74529;BME280;63009;52.584;5.932;2023-12-20T06:54:18;100951.78;;;8.09;100.00
74529;BME280;63009;52.584;5.932;2023-12-20T06:56:43;100946.03;;;8.20;100.00
74529;BME280;63009;52.584;5.932;2023-12-20T06:59:08;100943.81;;;8.11;100.00
74529;BME280;63009;52.584;5.932;2023-12-20T07:01:34;100934.78;;;8.16;100.00
74529;BME280;63009;52.584;5.932;2023-12-20T07:03:59;100936.56;;;8.16;100.00
74529;BME280;63009;52.584;5.932;2023-12-20T07:06:24;100927.09;;;8.12;100.00
74529;BME280;63009;52.584;5.932;2023-12-20T07:08:50;100935.78;;;8.14;100.00
74529;BME280;63009;52.584;5.932;2023-12-20T07:11:16;100930.41;;;8.17;100.00
74529;BME280;63009;52.584;5.932;2023-12-20T07:13:41;100921.50;;;8.19;100.00
74529;BME280;63009;52.584;5.932;2023-12-20T07:16:07;100913.00;;;8.13;100.00
74529;BME280;63009;52.584;5.932;2023-12-20T07:18:32;100911.75;;;8.21;100.00
74529;BME280;63009;52.584;5.932;2023-12-20T07:20:58;100918.13;;;8.16;100.00
74529;BME280;63009;52.584;5.932;2023-12-20T07:23:23;100912.59;;;8.22;100.00
74529;BME280;63009;52.584;5.932;2023-12-20T07:25:48;100909.03;;;8.23;100.00
74529;BME280;63009;52.584;5.932;2023-12-20T07:28:16;100911.44;;;8.27;100.00
74529;BME280;63009;52.584;5.932;2023-12-20T07:30:41;100912.94;;;8.33;100.00
74529;BME280;63009;52.584;5.932;2023-12-20T07:33:06;100904.25;;;8.31;100.00
74529;BME280;63009;52.584;5.932;2023-12-20T07:35:34;100918.16;;;8.35;100.00
74529;BME280;63009;52.584;5.932;2023-12-20T07:37:59;100913.59;;;8.38;100.00
74529;BME280;63009;52.584;5.932;2023-12-20T07:40:25;100922.19;;;8.42;100.00
74529;BME280;63009;52.584;5.932;2023-12-20T07:42:53;100918.00;;;8.38;100.00
74529;BME280;63009;52.584;5.932;2023-12-20T07:45:18;100915.84;;;8.27;100.00
74529;BME280;63009;52.584;5.932;2023-12-20T07:47:43;100929.03;;;8.46;100.00
74529;BME280;63009;52.584;5.932;2023-12-20T07:50:09;100941.63;;;8.39;100.00
74529;BME280;63009;52.584;5.932;2023-12-20T07:52:35;100937.78;;;8.46;100.00
74529;BME280;63009;52.584;5.932;2023-12-20T07:55:00;100945.78;;;8.45;100.00
74529;BME280;63009;52.584;5.932;2023-12-20T07:57:29;100948.41;;;8.45;100.00
74529;BME280;63009;52.584;5.932;2023-12-20T07:59:55;100949.03;;;8.50;100.00
74529;BME280;63009;52.584;5.932;2023-12-20T08:02:20;100945.91;;;8.42;100.00
74529;BME280;63009;52.584;5.932;2023-12-20T08:04:45;100946.47;;;8.48;100.00
74529;BME280;63009;52.584;5.932;2023-12-20T08:07:11;100953.38;;;8.51;100.00
74529;BME280;63009;52.584;5.932;2023-12-20T08:09:36;100958.56;;;8.52;100.00
74529;BME280;63009;52.584;5.932;2023-12-20T08:12:02;100952.50;;;8.50;100.00
74529;BME280;63009;52.584;5.932;2023-12-20T08:14:27;100934.94;;;8.51;100.00
74529;BME280;63009;52.584;5.932;2023-12-20T08:16:52;100952.44;;;8.33;100.00
74529;BME280;63009;52.584;5.932;2023-12-20T08:19:18;100945.38;;;8.33;100.00
74529;BME280;63009;52.584;5.932;2023-12-20T08:21:43;100945.53;;;8.49;100.00
74529;BME280;63009;52.584;5.932;2023-12-20T08:24:08;100945.13;;;8.40;100.00
74529;BME280;63009;52.584;5.932;2023-12-20T08:26:34;100942.25;;;8.44;100.00
74529;BME280;63009;52.584;5.932;2023-12-20T08:28:59;100943.84;;;8.48;100.00
74529;BME280;63009;52.584;5.932;2023-12-20T08:31:24;100937.16;;;8.41;100.00
74529;BME280;63009;52.584;5.932;2023-12-20T08:33:51;100930.25;;;8.39;100.00
74529;BME280;63009;52.584;5.932;2023-12-20T08:36:19;100944.63;;;8.50;100.00
74529;BME280;63009;52.584;5.932;2023-12-20T08:38:47;100935.09;;;8.48;100.00
74529;BME280;63009;52.584;5.932;2023-12-20T08:41:12;100927.97;;;8.50;100.00
74529;BME280;63009;52.584;5.932;2023-12-20T08:43:38;100935.69;;;8.53;100.00
74529;BME280;63009;52.584;5.932;2023-12-20T08:46:05;100945.03;;;8.60;100.00
74529;BME280;63009;52.584;5.932;2023-12-20T08:48:30;100943.44;;;8.56;100.00
74529;BME280;63009;52.584;5.932;2023-12-20T08:50:56;100939.81;;;8.58;100.00
74529;BME280;63009;52.584;5.932;2023-12-20T08:53:21;100935.63;;;8.54;100.00
74529;BME280;63009;52.584;5.932;2023-12-20T08:55:46;100937.41;;;8.54;100.00
74529;BME280;63009;52.584;5.932;2023-12-20T08:58:13;100943.91;;;8.47;100.00
74529;BME280;63009;52.584;5.932;2023-12-20T09:00:38;100942.59;;;8.55;100.00
74529;BME280;63009;52.584;5.932;2023-12-20T09:03:04;100941.28;;;8.47;100.00
74529;BME280;63009;52.584;5.932;2023-12-20T09:05:29;100933.66;;;8.41;100.00
74529;BME280;63009;52.584;5.932;2023-12-20T09:07:55;100929.66;;;8.51;100.00
74529;BME280;63009;52.584;5.932;2023-12-20T09:10:20;100930.34;;;8.54;100.00
74529;BME280;63009;52.584;5.932;2023-12-20T09:12:51;100931.84;;;8.60;100.00
74529;BME280;63009;52.584;5.932;2023-12-20T09:15:17;100942.16;;;8.65;100.00
74529;BME280;63009;52.584;5.932;2023-12-20T09:17:42;100933.69;;;8.58;100.00
74529;BME280;63009;52.584;5.932;2023-12-20T09:20:09;100934.69;;;8.55;100.00
74529;BME280;63009;52.584;5.932;2023-12-20T09:22:34;100927.56;;;8.57;100.00
74529;BME280;63009;52.584;5.932;2023-12-20T09:25:00;100951.22;;;8.59;100.00
74529;BME280;63009;52.584;5.932;2023-12-20T09:27:27;100943.31;;;8.59;100.00
74529;BME280;63009;52.584;5.932;2023-12-20T09:29:52;100953.63;;;8.63;100.00
74529;BME280;63009;52.584;5.932;2023-12-20T09:32:18;100931.63;;;8.65;100.00
74529;BME280;63009;52.584;5.932;2023-12-20T09:34:45;100956.88;;;8.69;100.00
74529;BME280;63009;52.584;5.932;2023-12-20T09:37:10;100946.00;;;8.76;100.00
74529;BME280;63009;52.584;5.932;2023-12-20T09:39:36;100951.28;;;8.93;100.00
74529;BME280;63009;52.584;5.932;2023-12-20T09:42:04;100947.22;;;8.86;100.00
74529;BME280;63009;52.584;5.932;2023-12-20T09:44:30;100956.31;;;8.98;100.00
74529;BME280;63009;52.584;5.932;2023-12-20T09:46:57;100951.66;;;9.03;100.00
74529;BME280;63009;52.584;5.932;2023-12-20T09:49:23;100959.19;;;9.11;100.00
74529;BME280;63009;52.584;5.932;2023-12-20T09:51:50;100952.75;;;9.16;100.00
74529;BME280;63009;52.584;5.932;2023-12-20T09:54:19;100962.38;;;9.17;100.00
74529;BME280;63009;52.584;5.932;2023-12-20T09:56:45;100943.59;;;9.23;100.00
74529;BME280;63009;52.584;5.932;2023-12-20T09:59:11;100943.34;;;9.28;100.00
74529;BME280;63009;52.584;5.932;2023-12-20T10:01:38;100946.84;;;9.29;100.00
74529;BME280;63009;52.584;5.932;2023-12-20T10:04:06;100958.88;;;9.34;100.00
74529;BME280;63009;52.584;5.932;2023-12-20T10:06:38;100960.34;;;9.22;100.00
74529;BME280;63009;52.584;5.932;2023-12-20T10:09:04;100976.66;;;9.31;100.00
74529;BME280;63009;52.584;5.932;2023-12-20T10:11:29;100966.47;;;9.23;100.00
74529;BME280;63009;52.584;5.932;2023-12-20T10:14:01;100965.38;;;9.27;100.00
74529;BME280;63009;52.584;5.932;2023-12-20T10:16:26;100963.91;;;9.21;100.00
74529;BME280;63009;52.584;5.932;2023-12-20T10:18:56;100973.06;;;9.14;100.00
74529;BME280;63009;52.584;5.932;2023-12-20T10:21:25;100967.16;;;9.09;100.00
74529;BME280;63009;52.584;5.932;2023-12-20T10:23:54;100957.75;;;8.86;100.00
74529;BME280;63009;52.584;5.932;2023-12-20T10:26:24;100956.13;;;8.84;100.00
74529;BME280;63009;52.584;5.932;2023-12-20T10:28:51;100963.28;;;8.99;100.00
74529;BME280;63009;52.584;5.932;2023-12-20T10:31:33;100953.53;;;9.01;100.00
74529;BME280;63009;52.584;5.932;2023-12-20T10:34:01;100952.19;;;8.92;100.00
74529;BME280;63009;52.584;5.932;2023-12-20T10:36:29;100996.25;;;8.90;100.00
74529;BME280;63009;52.584;5.932;2023-12-20T10:38:56;101004.88;;;8.56;100.00
74529;BME280;63009;52.584;5.932;2023-12-20T10:41:30;101004.28;;;8.12;100.00
74529;BME280;63009;52.584;5.932;2023-12-20T10:43:59;100998.78;;;7.79;100.00
74529;BME280;63009;52.584;5.932;2023-12-20T10:46:29;100989.00;;;7.42;100.00
74529;BME280;63009;52.584;5.932;2023-12-20T10:48:56;100982.31;;;7.35;100.00
74529;BME280;63009;52.584;5.932;2023-12-20T10:51:22;100986.50;;;7.19;100.00
74529;BME280;63009;52.584;5.932;2023-12-20T10:53:48;100987.81;;;7.29;100.00
74529;BME280;63009;52.584;5.932;2023-12-20T10:56:16;100988.22;;;7.20;100.00
74529;BME280;63009;52.584;5.932;2023-12-20T10:58:43;100980.84;;;7.28;100.00
74529;BME280;63009;52.584;5.932;2023-12-20T11:01:12;100969.28;;;7.52;100.00
74529;BME280;63009;52.584;5.932;2023-12-20T11:03:38;100956.13;;;7.32;100.00
74529;BME280;63009;52.584;5.932;2023-12-20T11:09:22;100966.94;;;7.46;100.00
74529;BME280;63009;52.584;5.932;2023-12-20T11:12:13;100970.59;;;7.62;100.00
74529;BME280;63009;52.584;5.932;2023-12-20T11:14:52;100975.72;;;7.65;100.00
74529;BME280;63009;52.584;5.932;2023-12-20T11:17:18;100988.22;;;7.60;100.00
74529;BME280;63009;52.584;5.932;2023-12-20T11:22:24;100958.75;;;7.52;100.00
74529;BME280;63009;52.584;5.932;2023-12-20T11:24:51;100950.72;;;7.55;100.00
74529;BME280;63009;52.584;5.932;2023-12-20T11:27:18;100963.09;;;7.53;100.00
74529;BME280;63009;52.584;5.932;2023-12-20T11:29:51;100956.66;;;7.60;100.00
74529;BME280;63009;52.584;5.932;2023-12-20T11:37:20;100954.56;;;7.28;100.00
74529;BME280;63009;52.584;5.932;2023-12-20T11:40:15;100952.59;;;7.33;100.00
74529;BME280;63009;52.584;5.932;2023-12-20T11:42:45;100939.84;;;7.24;100.00
74529;BME280;63009;52.584;5.932;2023-12-20T11:45:17;100948.88;;;7.18;100.00
74529;BME280;63009;52.584;5.932;2023-12-20T11:47:46;100933.09;;;7.18;100.00
74529;BME280;63009;52.584;5.932;2023-12-20T11:50:13;100946.34;;;7.35;100.00
74529;BME280;63009;52.584;5.932;2023-12-20T11:52:39;100938.44;;;7.15;100.00
74529;BME280;63009;52.584;5.932;2023-12-20T11:55:05;100936.94;;;7.30;100.00
74529;BME280;63009;52.584;5.932;2023-12-20T11:57:31;100934.25;;;7.31;100.00
74529;BME280;63009;52.584;5.932;2023-12-20T11:59:56;100928.81;;;7.36;100.00
74529;BME280;63009;52.584;5.932;2023-12-20T12:02:22;100927.81;;;7.38;100.00
74529;BME280;63009;52.584;5.932;2023-12-20T12:04:49;100925.31;;;7.35;100.00
74529;BME280;63009;52.584;5.932;2023-12-20T12:07:16;100915.06;;;7.29;100.00
74529;BME280;63009;52.584;5.932;2023-12-20T12:09:41;100920.03;;;7.56;100.00
74529;BME280;63009;52.584;5.932;2023-12-20T12:12:07;100925.34;;;7.54;100.00
74529;BME280;63009;52.584;5.932;2023-12-20T12:14:32;100909.50;;;7.56;100.00
74529;BME280;63009;52.584;5.932;2023-12-20T12:16:58;100899.91;;;7.55;100.00
74529;BME280;63009;52.584;5.932;2023-12-20T12:19:24;100893.09;;;7.69;100.00
74529;BME280;63009;52.584;5.932;2023-12-20T12:21:51;100890.53;;;7.49;100.00
74529;BME280;63009;52.584;5.932;2023-12-20T12:24:20;100879.16;;;7.49;100.00
74529;BME280;63009;52.584;5.932;2023-12-20T12:26:53;100882.41;;;7.54;100.00
74529;BME280;63009;52.584;5.932;2023-12-20T12:29:22;100875.53;;;7.51;100.00
74529;BME280;63009;52.584;5.932;2023-12-20T12:31:48;100872.13;;;7.68;100.00
74529;BME280;63009;52.584;5.932;2023-12-20T12:34:13;100872.28;;;7.65;100.00
74529;BME280;63009;52.584;5.932;2023-12-20T12:36:39;100872.28;;;7.65;100.00
74529;BME280;63009;52.584;5.932;2023-12-20T12:39:05;100853.31;;;7.77;100.00
74529;BME280;63009;52.584;5.932;2023-12-20T12:41:30;100854.41;;;7.71;100.00
74529;BME280;63009;52.584;5.932;2023-12-20T12:43:56;100849.75;;;7.78;100.00
74529;BME280;63009;52.584;5.932;2023-12-20T12:46:21;100841.78;;;7.80;100.00
74529;BME280;63009;52.584;5.932;2023-12-20T12:48:47;100844.41;;;7.80;100.00
74529;BME280;63009;52.584;5.932;2023-12-20T12:51:12;100851.91;;;7.87;100.00
74529;BME280;63009;52.584;5.932;2023-12-20T12:53:39;100854.28;;;7.93;100.00
74529;BME280;63009;52.584;5.932;2023-12-20T12:56:04;100834.78;;;7.97;100.00